Time;durP1;ratioP1;P1;durP2;ratioP2;P2;SDS_P1;SDS_P2;PMS_P1;PMS_P2;Temp;Humidity;BMP_temperature;BMP_pressure;BME280_temperature;BME280_humidity;BME280_pressure;Samples;Min_cycle;Max_cycle;Signal;HPM_P1;HPM_P2
2022/02/22 00:01:17;;;;;;;10.95;7.28;;;;;;;;;;5055633;28;20033;-65
2022/02/22 00:03:43;;;;;;;11.38;7.95;;;;;;;;;;5055578;28;20112;-68
2022/02/22 00:06:09;;;;;;;20.10;14.95;;;;;;;;;;5055637;28;20025;-67
2022/02/22 00:08:35;;;;;;;30.75;23.67;;;;;;;;;;5055640;28;20029;-66
2022/02/22 00:11:01;;;;;;;20.73;9.65;;;;;;;;;;5055468;28;20021;-68
2022/02/22 00:13:28;;;;;;;13.98;8.65;;;;;;;;;;5055384;28;20052;-68
2022/02/22 00:15:54;;;;;;;13.50;10.18;;;;;;;;;;5055558;28;20025;-68
2022/02/22 00:18:21;;;;;;;12.48;7.03;;;;;;;;;;5054487;28;20033;-67
2022/02/22 00:20:47;;;;;;;11.38;6.90;;;;;;;;;;5055260;28;20482;-66
2022/02/22 00:23:14;;;;;;;9.82;6.47;;;;;;;;;;5054978;28;20049;-66
2022/02/22 00:25:40;;;;;;;48.95;29.90;;;256.40;2252.80;;;;;;5055221;28;20017;-66
2022/02/22 00:28:05;;;;;;;23.45;12.52;;;256.20;2252.80;;;;;;5055066;28;20021;-67
2022/02/22 00:30:33;;;;;;;15.82;10.38;;;;;;;;;;5055102;28;20032;-67
2022/02/22 00:32:59;;;;;;;19.95;14.57;;;;;;;;;;5055384;28;20033;-67
2022/02/22 00:35:26;;;;;;;18.15;13.32;;;;;;;;;;5055011;28;20029;-67
2022/02/22 00:37:52;;;;;;;17.58;10.55;;;;;;;;;;5054969;28;20072;-66
2022/02/22 00:40:18;;;;;;;21.10;15.45;;;;;;;;;;5054964;28;20106;-68
2022/02/22 00:42:44;;;;;;;23.75;17.27;;;;;;;;;;5054916;28;20032;-67
2022/02/22 00:45:12;;;;;;;25.90;18.33;;;;;;;;;;5054758;28;20025;-68
2022/02/22 00:47:38;;;;;;;20.17;13.80;;;;;;;;;;5054855;28;20533;-64
2022/02/22 00:50:05;;;;;;;30.83;21.40;;;;;;;;;;5054783;28;20029;-66
2022/02/22 00:52:31;;;;;;;18.55;12.65;;;;;;;;;;5054678;28;20036;-68
2022/02/22 00:54:57;;;;;;;23.17;15.80;;;;;;;;;;5054561;28;20020;-67
2022/02/22 00:57:23;;;;;;;19.75;13.00;;;;;;;;;;5054585;28;20025;-64
2022/02/22 00:59:49;;;;;;;37.38;24.77;;;;;;;;;;5054416;28;20033;-62
2022/02/22 01:02:15;;;;;;;41.72;31.98;;;;;;;;;;5054726;28;20112;-68
2022/02/22 01:04:41;;;;;;;25.98;19.27;;;256.40;2252.80;;;;;;5054415;28;20029;-66
2022/02/22 01:07:07;;;;;;;18.95;13.45;;;256.30;2252.80;;;;;;5054467;28;20025;-68
2022/02/22 01:09:33;;;;;;;18.58;13.35;;;256.30;2252.80;;;;;;5054256;28;20021;-66
2022/02/22 01:11:59;;;;;;;19.35;12.55;;;;;;;;;;5054450;28;20044;-68
2022/02/22 01:14:25;;;;;;;21.20;14.40;;;;;;;;;;5054430;28;20052;-67
2022/02/22 01:16:51;;;;;;;17.65;11.40;;;;;;;;;;5054236;28;20032;-66
2022/02/22 01:19:17;;;;;;;18.10;10.70;;;;;;;;;;5054289;28;20063;-67
2022/02/22 01:21:44;;;;;;;13.32;8.48;;;;;;;;;;5053880;28;20037;-67
2022/02/22 01:24:10;;;;;;;14.88;8.60;;;;;;;;;;5053915;28;20037;-67
2022/02/22 01:26:36;;;;;;;13.32;8.27;;;;;;;;;;5054216;28;20020;-67
2022/02/22 01:29:03;;;;;;;13.93;7.65;;;;;;;;;;5053914;28;20104;-67
2022/02/22 01:31:29;;;;;;;13.73;8.20;;;;;;;;;;5053901;28;20021;-67
2022/02/22 01:33:55;;;;;;;14.88;9.13;;;;;;;;;;5053948;28;20036;-67
2022/02/22 01:36:22;;;;;;;17.08;9.10;;;;;;;;;;5053667;28;20514;-67
2022/02/22 01:38:51;;;;;;;11.63;8.48;;;;;;;;;;5053805;28;20115;-62
2022/02/22 01:41:17;;;;;;;17.50;10.10;;;;;;;;;;5053661;28;20032;-67
2022/02/22 01:43:43;;;;;;;14.05;9.98;;;256.60;2252.80;;;;;;5053737;28;20025;-66
2022/02/22 01:46:09;;;;;;;16.75;10.18;;;;;;;;;;5053646;28;20025;-68
2022/02/22 01:48:35;;;;;;;12.50;8.30;;;256.50;2252.80;;;;;;5054035;28;20037;-66
2022/02/22 01:51:00;;;;;;;14.40;9.82;;;256.50;2252.80;;;;;;5053753;28;20040;-68
2022/02/22 01:53:26;;;;;;;13.10;8.68;;;;;;;;;;5053561;28;20100;-68
2022/02/22 01:55:52;;;;;;;10.82;6.60;;;;;;;;;;5053381;28;20356;-68
2022/02/22 01:58:18;;;;;;;8.60;5.95;;;;;;;;;;5053389;28;20104;-67
2022/02/22 02:00:46;;;;;;;9.98;6.40;;;;;;;;;;5053370;28;20533;-68
2022/02/22 02:03:15;;;;;;;9.23;6.03;;;;;;;;;;5053515;28;20033;-67
2022/02/22 02:05:41;;;;;;;7.68;4.88;;;;;;;;;;5053271;28;20021;-68
2022/02/22 02:08:07;;;;;;;8.25;5.45;;;;;;;;;;5053376;28;20029;-67
2022/02/22 02:10:33;;;;;;;9.85;5.35;;;;;;;;;;5053176;28;20025;-67
2022/02/22 02:12:59;;;;;;;10.02;6.63;;;;;;;;;;5053202;28;20155;-68
2022/02/22 02:15:25;;;;;;;12.73;7.15;;;;;;;;;;5053482;28;20029;-67
2022/02/22 02:17:51;;;;;;;6.55;4.40;;;;;;;;;;5053131;28;20025;-67
2022/02/22 02:20:17;;;;;;;5.68;3.55;;;;;;;;;;5053193;28;20032;-67
2022/02/22 02:22:43;;;;;;;13.88;9.20;;;;;;;;;;5052930;28;20045;-67
2022/02/22 02:25:10;;;;;;;11.45;6.65;;;;;;;;;;5052978;28;20025;-67
2022/02/22 02:27:36;;;;;;;8.40;5.25;;;231.10;2252.80;;;;;;5053177;28;20029;-67
2022/02/22 02:30:04;;;;;;;8.30;5.82;;;;;;;;;;5052887;28;20024;-67
2022/02/22 02:32:30;;;;;;;11.35;6.72;;;;;;;;;;5052984;28;20029;-67
2022/02/22 02:34:56;;;;;;;8.82;5.90;;;;;;;;;;5052933;28;20032;-68
2022/02/22 02:37:23;;;;;;;9.85;6.63;;;;;;;;;;5052940;28;20060;-68
2022/02/22 02:39:49;;;;;;;12.95;8.07;;;;;;;;;;5052789;28;20103;-66
2022/02/22 02:42:17;;;;;;;12.80;7.55;;;;;;;;;;5052414;28;20036;-68
2022/02/22 02:44:47;;;;;;;10.75;7.13;;;256.10;2252.80;;;;;;5053049;28;20442;-66
2022/02/22 02:47:13;;;;;;;10.55;6.57;;;;;;;;;;5052954;28;20029;-67
2022/02/22 02:49:40;;;;;;;7.63;5.40;;;;;;;;;;5052843;28;20071;-66
2022/02/22 02:52:07;;;;;;;9.13;5.70;;;;;;;;;;5052861;28;20037;-67
2022/02/22 02:54:33;;;;;;;11.82;6.80;;;;;;;;;;5052670;28;20168;-68
2022/02/22 02:56:59;;;;;;;10.02;6.55;;;;;;;;;;5052657;28;20079;-68
2022/02/22 02:59:25;;;;;;;6.72;4.03;;;;;;;;;;5052570;28;20036;-67
2022/02/22 03:01:52;;;;;;;7.43;4.68;;;;;;;;;;5052702;28;20112;-68
2022/02/22 03:04:18;;;;;;;5.97;3.95;;;231.20;2252.80;;;;;;5052666;28;20035;-65
2022/02/22 03:06:44;;;;;;;4.93;3.45;;;;;;;;;;5052683;28;20025;-64
2022/02/22 03:09:10;;;;;;;5.82;3.38;;;231.30;2252.80;;;;;;5052333;28;20025;-66
2022/02/22 03:11:35;;;;;;;7.53;5.07;;;256.00;2252.80;;;;;;5052546;28;20060;-66
2022/02/22 03:14:01;;;;;;;11.35;6.63;;;231.30;2252.80;;;;;;5034140;28;20079;-66
2022/02/22 03:16:27;;;;;;;8.68;5.00;;;231.30;2252.80;;;;;;5052276;28;20082;-66
2022/02/22 03:18:53;;;;;;;8.60;4.97;;;256.10;2252.80;;;;;;5052302;28;20041;-66
2022/02/22 03:21:19;;;;;;;10.02;4.90;;;231.30;2252.80;;;;;;5052059;28;20379;-66
2022/02/22 03:23:45;;;;;;;9.95;5.43;;;231.20;2252.80;;;;;;5052353;28;20479;-63
2022/02/22 03:26:11;;;;;;;6.60;3.70;;;231.10;2252.80;;;;;;5052162;28;20086;-65
2022/02/22 03:28:37;;;;;;;10.13;4.80;;;;;;;;;;5052120;28;20025;-67
2022/02/22 03:31:04;;;;;;;8.60;4.78;;;231.30;2252.80;;;;;;5052093;28;20098;-66
2022/02/22 03:33:31;;;;;;;8.68;4.22;;;256.10;2252.80;;;;;;5052628;28;20576;-66
2022/02/22 03:35:57;;;;;;;7.32;4.40;;;;;;;;;;5052212;28;20425;-67
2022/02/22 03:38:23;;;;;;;9.57;5.57;;;;;;;;;;5052061;28;20032;-67
2022/02/22 03:40:49;;;;;;;6.65;4.22;;;;;;;;;;5052088;28;20029;-65
2022/02/22 03:43:15;;;;;;;7.38;4.03;;;;;;;;;;5052192;28;20025;-67
2022/02/22 03:45:41;;;;;;;6.18;3.53;;;;;;;;;;5052393;28;20021;-66
2022/02/22 03:48:07;;;;;;;5.20;3.20;;;;;;;;;;5052088;28;20028;-67
2022/02/22 03:50:33;;;;;;;6.47;3.20;;;231.30;2252.80;;;;;;5052548;28;20029;-66
2022/02/22 03:52:59;;;;;;;6.90;3.58;;;231.20;2252.80;;;;;;5052186;28;20028;-66
2022/02/22 03:55:25;;;;;;;5.40;3.75;;;231.20;2252.80;;;;;;5055137;28;20070;-66
2022/02/22 03:57:51;;;;;;;8.60;4.20;;;231.20;2252.80;;;;;;5055579;28;20106;-67
2022/02/22 04:00:23;;;;;;;6.68;3.75;;;231.10;2252.80;;;;;;5055453;28;20415;-65
2022/02/22 04:02:50;;;;;;;6.82;3.55;;;231.10;2252.80;;;;;;5055520;28;20395;-66
2022/02/22 04:05:17;;;;;;;6.65;3.85;;;231.20;2252.80;;;;;;5055431;28;20033;-66
2022/02/22 04:07:43;;;;;;;9.15;5.82;;;;;;;;;;5055367;28;20064;-63
2022/02/22 04:10:11;;;;;;;9.05;5.18;;;231.20;2252.80;;;;;;5055372;28;20060;-62
2022/02/22 04:12:36;;;;;;;10.88;6.07;;;231.20;2252.80;;;;;;5055262;28;20029;-66
2022/02/22 04:15:03;;;;;;;14.50;8.43;;;231.20;2252.80;;;;;;5055172;28;20151;-66
2022/02/22 04:17:29;;;;;;;10.68;6.32;;;231.20;2252.80;;;;;;5055366;28;20017;-65
2022/02/22 04:19:55;;;;;;;10.73;7.43;;;231.20;2252.80;;;;;;5055079;28;20033;-68
2022/02/22 04:22:21;;;;;;;16.90;8.98;;;231.00;2252.80;;;;;;5054913;28;20411;-66
2022/02/22 04:24:47;;;;;;;11.18;6.30;;;231.10;2252.80;;;;;;5055097;28;20025;-66
2022/02/22 04:27:13;;;;;;;12.00;8.05;;;;;;;;;;5055292;28;20021;-64
2022/02/22 04:29:39;;;;;;;13.52;7.78;;;;;;;;;;5054996;28;20541;-67
2022/02/22 04:32:06;;;;;;;10.90;6.57;;;;;;;;;;5054827;28;20063;-65
2022/02/22 04:34:32;;;;;;;14.73;8.98;;;;;;;;;;5054895;28;20024;-67
2022/02/22 04:36:58;;;;;;;11.48;7.35;;;;;;;;;;5054847;28;20060;-65
2022/02/22 04:39:24;;;;;;;15.10;8.45;;;;;;;;;;5054714;28;20068;-68
2022/02/22 04:41:50;;;;;;;22.65;12.23;;;;;;;;;;5054725;28;20067;-66
2022/02/22 04:44:17;;;;;;;17.85;9.85;;;;;;;;;;5054808;28;20029;-68
2022/02/22 04:46:43;;;;;;;18.00;10.02;;;230.80;2252.80;;;;;;5054641;28;20067;-66
2022/02/22 04:49:09;;;;;;;18.55;11.07;;;230.70;2252.80;;;;;;5054750;28;20033;-66
2022/02/22 04:51:43;;;;;;;13.48;8.93;;;;;;;;;;5054608;28;20025;-67
2022/02/22 04:54:10;;;;;;;13.65;9.32;;;;;;;;;;5054450;28;20029;-61
2022/02/22 04:56:36;;;;;;;11.68;8.27;;;;;;;;;;5054326;28;20027;-67
2022/02/22 04:59:02;;;;;;;20.27;12.00;;;;;;;;;;5054505;28;20539;-67
2022/02/22 05:01:28;;;;;;;13.65;8.85;;;;;;;;;;5054202;28;20036;-67
2022/02/22 05:03:54;;;;;;;14.63;9.40;;;;;;;;;;5054628;28;20375;-67
2022/02/22 05:06:20;;;;;;;17.77;10.23;;;;;;;;;;5054355;28;20031;-67
2022/02/22 05:08:46;;;;;;;42.92;25.48;;;;;;;;;;5054102;28;20104;-62
2022/02/22 05:11:12;;;;;;;17.73;12.45;;;;;;;;;;5054052;28;20017;-66
2022/02/22 05:13:38;;;;;;;21.23;12.43;;;;;;;;;;5054187;28;20510;-66
2022/02/22 05:16:05;;;;;;;24.00;16.17;;;;;;;;;;5054202;28;20456;-67
2022/02/22 05:18:31;;;;;;;23.77;14.95;;;;;;;;;;5054132;28;20040;-64
2022/02/22 05:20:58;;;;;;;24.08;15.25;;;;;;;;;;5054024;28;20021;-66
2022/02/22 05:23:24;;;;;;;22.98;14.40;;;;;;;;;;5053886;28;20049;-67
2022/02/22 05:25:51;;;;;;;22.50;15.15;;;;;;;;;;5053700;28;20031;-67
2022/02/22 05:28:17;;;;;;;21.42;13.80;;;;;;;;;;5053896;28;20021;-67
2022/02/22 05:30:43;;;;;;;16.33;10.98;;;;;;;;;;5035914;28;20441;-67
2022/02/22 05:33:09;;;;;;;16.70;9.57;;;;;;;;;;5053983;28;20037;-68
2022/02/22 05:35:36;;;;;;;15.63;9.38;;;;;;;;;;5053749;28;20021;-67
2022/02/22 05:38:02;;;;;;;15.05;8.95;;;;;;;;;;5053537;28;20148;-67
2022/02/22 05:40:28;;;;;;;15.70;9.18;;;;;;;;;;5053564;28;20036;-67
2022/02/22 05:42:54;;;;;;;17.13;9.88;;;;;;;;;;5053510;28;20017;-67
2022/02/22 05:45:20;;;;;;;18.40;11.15;;;;;;;;;;5053512;28;20108;-66
2022/02/22 05:47:45;;;;;;;17.75;9.68;;;230.80;2252.80;;;;;;5053567;28;20023;-66
2022/02/22 05:50:12;;;;;;;19.95;13.27;;;230.80;2252.80;;;;;;5053447;28;20029;-66
2022/02/22 05:52:38;;;;;;;20.15;12.45;;;231.00;2252.80;;;;;;5053299;28;20032;-65
2022/02/22 05:55:04;;;;;;;23.95;18.10;;;;;;;;;;5053090;28;20083;-67
2022/02/22 05:57:30;;;;;;;18.50;13.10;;;;;;;;;;5053248;28;20483;-67
2022/02/22 05:59:56;;;;;;;19.70;12.43;;;;;;;;;;5053431;28;20565;-68
2022/02/22 06:02:22;;;;;;;26.15;16.83;;;;;;;;;;5053324;28;20068;-68
2022/02/22 06:04:48;;;;;;;29.95;21.58;;;;;;;;;;5053121;28;20029;-68
2022/02/22 06:07:19;;;;;;;29.33;17.17;;;231.20;2252.80;;;;;;5053179;28;20499;-66
2022/02/22 06:09:45;;;;;;;37.28;27.38;;;231.10;2252.80;;;;;;5053043;28;20437;-64
2022/02/22 06:12:10;;;;;;;22.15;15.00;;;231.10;2252.80;;;;;;5053606;28;20032;-67
2022/02/22 06:14:37;;;;;;;32.90;21.58;;;;;;;;;;5052314;28;20028;-67
2022/02/22 06:17:03;;;;;;;66.95;42.40;;;;;;;;;;5052544;28;20056;-68
2022/02/22 06:19:28;;;;;;;137.43;68.28;;;231.30;2252.80;;;;;;5053503;28;20068;-66
2022/02/22 06:21:54;;;;;;;125.65;71.82;;;231.30;2252.80;;;;;;5052645;28;20064;-65
2022/02/22 06:24:20;;;;;;;48.22;30.10;;;256.00;2252.80;;;;;;5053098;28;20032;-66
2022/02/22 06:26:46;;;;;;;36.90;22.80;;;;;;;;;;5052698;28;20051;-68
2022/02/22 06:29:12;;;;;;;36.70;24.90;;;;;;;;;;5052922;28;20112;-68
2022/02/22 06:31:38;;;;;;;47.60;31.58;;;;;;;;;;5053045;28;20037;-67
2022/02/22 06:34:06;;;;;;;30.50;20.88;;;256.10;2252.80;;;;;;5052881;28;20033;-67
2022/02/22 06:36:33;;;;;;;99.95;48.42;;;256.20;2252.80;;;;;;5053034;28;20094;-67
2022/02/22 06:39:00;;;;;;;101.72;49.88;;;256.50;2252.80;;;;;;5052781;28;20456;-66
2022/02/22 06:41:26;;;;;;;100.00;47.97;;;256.30;2252.80;;;;;;5052777;28;20078;-67
2022/02/22 06:43:52;;;;;;;60.05;35.25;;;256.40;2252.80;;;;;;5052910;28;20047;-67
2022/02/22 06:46:18;;;;;;;55.72;34.55;;;;;;;;;;5052762;28;20021;-68
2022/02/22 06:48:44;;;;;;;50.78;33.10;;;;;;;;;;5052715;28;20021;-69
2022/02/22 06:51:10;;;;;;;39.53;26.83;;;;;;;;;;5052725;28;20092;-69
2022/02/22 06:53:37;;;;;;;48.58;36.53;;;;;;;;;;5052744;28;20364;-69
2022/02/22 06:56:03;;;;;;;38.95;29.40;;;;;;;;;;5052479;28;20025;-68
2022/02/22 06:58:29;;;;;;;32.03;23.40;;;;;;;;;;5052558;28;20017;-69
2022/02/22 07:00:56;;;;;;;43.03;28.60;;;;;;;;;;5052656;28;20029;-66
2022/02/22 07:03:22;;;;;;;55.67;34.53;;;;;;;;;;5052898;28;20148;-69
2022/02/22 07:05:49;;;;;;;52.97;38.47;;;;;;;;;;5052671;28;20052;-69
2022/02/22 07:08:15;;;;;;;58.60;37.45;;;;;;;;;;5052576;28;20087;-68
2022/02/22 07:10:41;;;;;;;125.65;68.72;;;256.20;2252.80;;;;;;5052475;28;20099;-67
2022/02/22 07:13:07;;;;;;;92.32;69.18;;;256.20;2252.80;;;;;;5052560;28;20025;-67
2022/02/22 07:15:32;;;;;;;46.65;35.58;;;256.40;2252.80;;;;;;5052582;28;20029;-67
2022/02/22 07:18:03;;;;;;;85.53;58.50;;;;;;;;;;5052449;28;20025;-68
2022/02/22 07:20:29;;;;;;;68.93;49.33;;;;;;;;;;5052500;28;20104;-68
2022/02/22 07:22:55;;;;;;;62.15;39.88;;;256.90;2252.80;;;;;;5052577;28;20099;-68
2022/02/22 07:25:22;;;;;;;92.03;65.28;;;;;;;;;;5052385;28;20028;-66
2022/02/22 07:27:48;;;;;;;123.03;83.22;;;256.60;2252.80;;;;;;5053164;28;20102;-67
2022/02/22 07:30:15;;;;;;;125.63;87.28;;;256.40;2252.80;;;;;;5056310;28;20480;-67
2022/02/22 07:32:41;;;;;;;120.00;81.80;;;256.20;2252.80;;;;;;5056387;28;20032;-68
2022/02/22 07:35:08;;;;;;;104.75;69.78;;;;;;;;;;5056080;28;20383;-69
2022/02/22 07:37:36;;;;;;;64.35;44.88;;;256.30;2252.80;;;;;;5056181;28;20020;-67
2022/02/22 07:40:03;;;;;;;78.72;47.45;;;256.30;2252.80;;;;;;5055913;28;20032;-67
2022/02/22 07:42:29;;;;;;;53.75;36.92;;;256.30;2252.80;;;;;;5055949;28;20569;-67
2022/02/22 07:44:55;;;;;;;40.72;27.35;;;256.30;2252.80;;;;;;5056008;28;20029;-67
2022/02/22 07:47:20;;;;;;;25.35;16.05;;;256.20;2252.80;;;;;;5055818;28;20071;-67
2022/02/22 07:49:46;;;;;;;24.15;15.15;;;;;;;;;;5055933;28;20025;-69
2022/02/22 07:52:12;;;;;;;25.60;18.38;;;231.10;2252.80;;;;;;5055871;28;20104;-64
2022/02/22 07:54:38;;;;;;;29.48;17.10;;;;;;;;;;5055879;28;20107;-69
2022/02/22 07:57:05;;;;;;;22.13;15.05;;;;;;;;;;5055600;28;20112;-68
2022/02/22 07:59:31;;;;;;;20.30;14.93;;;;;;;;;;5055961;28;20108;-68
2022/02/22 08:01:57;;;;;;;20.50;16.42;;;;;;;;;;5055572;28;20040;-67
2022/02/22 08:04:26;;;;;;;30.23;24.85;;;;;;;;;;5055750;28;20061;-69
2022/02/22 08:06:56;;;;;;;29.13;22.48;;;231.10;2252.80;;;;;;5055599;28;20059;-68
2022/02/22 08:09:22;;;;;;;22.23;18.15;;;231.10;2252.80;;;;;;5055526;28;20025;-68
2022/02/22 08:11:48;;;;;;;20.00;16.67;;;231.00;2252.80;;;;;;5055266;28;20025;-64
2022/02/22 08:14:14;;;;;;;29.95;21.92;;;231.30;2252.80;;;;;;5055449;28;20048;-68
2022/02/22 08:16:40;;;;;;;39.00;28.05;;;;;;;;;;5055313;28;20479;-69
2022/02/22 08:19:07;;;;;;;48.70;31.17;;;256.00;2252.80;;;;;;5055482;28;20090;-68
2022/02/22 08:21:33;;;;;;;55.15;37.13;;;256.00;2252.80;;;;;;5055086;28;20037;-67
2022/02/22 08:24:00;;;;;;;53.70;35.95;;;;;;;;;;5055199;28;20045;-69
2022/02/22 08:26:26;;;;;;;35.85;24.55;;;;;;;;;;5055100;28;20022;-69
2022/02/22 08:28:52;;;;;;;32.00;23.30;;;;;;;;;;5055094;28;20033;-69
2022/02/22 08:31:18;;;;;;;30.73;21.50;;;;;;;;;;5055075;28;20028;-68
2022/02/22 08:33:44;;;;;;;22.10;15.63;;;;;;;;;;5054921;28;20031;-66
2022/02/22 08:36:11;;;;;;;29.42;21.02;;;;;;;;;;5055299;28;20150;-68
2022/02/22 08:38:38;;;;;;;22.63;16.63;;;;;;;;;;5054856;28;20111;-68
2022/02/22 08:41:04;;;;;;;60.67;50.20;;;;;;;;;;5054122;28;20103;-64
2022/02/22 08:43:30;;;;;;;23.90;15.05;;;;;;;;;;5055305;28;20029;-68
2022/02/22 08:45:56;;;;;;;21.88;14.48;;;;;;;;;;5054799;28;20476;-69
2022/02/22 08:48:23;;;;;;;27.80;20.83;;;;;;;;;;5054904;28;20104;-68
2022/02/22 08:50:50;;;;;;;25.52;18.65;;;;;;;;;;5054801;28;20476;-68
2022/02/22 08:53:17;;;;;;;22.70;15.82;;;;;;;;;;5054673;28;20096;-69
2022/02/22 08:55:43;;;;;;;25.58;17.10;;;;;;;;;;5054414;28;20051;-69
2022/02/22 08:58:09;;;;;;;31.70;20.38;;;;;;;;;;5054659;28;20025;-68
2022/02/22 09:00:38;;;;;;;34.47;24.13;;;;;;;;;;5054408;28;20033;-68
2022/02/22 09:03:04;;;;;;;24.35;17.48;;;;;;;;;;5054410;28;20041;-68
2022/02/22 09:05:33;;;;;;;24.50;13.85;;;;;;;;;;5054447;28;20032;-68
2022/02/22 09:07:59;;;;;;;25.70;16.58;;;;;;;;;;5054396;28;20381;-68
2022/02/22 09:10:25;;;;;;;20.83;14.68;;;;;;;;;;5054206;28;20025;-68
2022/02/22 09:12:52;;;;;;;21.60;17.90;;;;;;;;;;5054303;28;20092;-69
2022/02/22 09:15:18;;;;;;;15.13;10.98;;;;;;;;;;5054208;28;20408;-68
2022/02/22 09:17:44;;;;;;;19.95;12.82;;;;;;;;;;5054168;28;20025;-68
2022/02/22 09:20:11;;;;;;;16.17;10.02;;;;;;;;;;5054274;28;20389;-69
2022/02/22 09:22:38;;;;;;;17.98;11.38;;;;;;;;;;5054013;28;20053;-68
2022/02/22 09:25:06;;;;;;;17.08;11.07;;;;;;;;;;5053853;28;20036;-65
2022/02/22 09:27:32;;;;;;;15.32;10.27;;;;;;;;;;5053946;28;20025;-68
2022/02/22 09:29:58;;;;;;;22.63;16.13;;;;;;;;;;5054009;28;20021;-69
2022/02/22 09:32:24;;;;;;;20.38;13.77;;;;;;;;;;5053731;28;20041;-68
2022/02/22 09:34:51;;;;;;;20.08;13.35;;;;;;;;;;5053870;28;20494;-69
2022/02/22 09:37:17;;;;;;;16.92;12.68;;;;;;;;;;5053785;28;20379;-68
2022/02/22 09:39:43;;;;;;;18.38;13.23;;;;;;;;;;5053621;28;20029;-69
2022/02/22 09:42:10;;;;;;;22.73;15.15;;;;;;;;;;5035305;28;20037;-69
2022/02/22 09:44:37;;;;;;;18.80;11.45;;;;;;;;;;5053733;28;20053;-69
2022/02/22 09:47:03;;;;;;;14.52;10.27;;;;;;;;;;5053438;28;20032;-69
2022/02/22 09:49:29;;;;;;;16.40;10.82;;;;;;;;;;5053684;28;20029;-69
2022/02/22 09:51:56;;;;;;;17.30;11.50;;;;;;;;;;5052608;28;20029;-69
2022/02/22 09:54:22;;;;;;;16.08;10.95;;;;;;;;;;5053591;28;20108;-69
2022/02/22 09:56:49;;;;;;;21.48;15.30;;;333.20;2329.60;;;;;;5053375;28;20079;-67
2022/02/22 09:59:15;;;;;;;16.40;11.88;;;;;;;;;;5053260;28;20036;-69
2022/02/22 10:01:42;;;;;;;21.67;13.30;;;;;;;;;;5053099;28;20526;-69
2022/02/22 10:04:08;;;;;;;18.65;13.00;;;;;;;;;;5053145;28;20031;-66
2022/02/22 10:06:35;;;;;;;19.17;14.02;;;;;;;;;;5053358;28;20021;-63
2022/02/22 10:09:01;;;;;;;14.27;9.90;;;;;;;;;;5053180;28;20029;-63
2022/02/22 10:11:27;;;;;;;18.58;13.10;;;333.70;2329.60;;;;;;5053091;28;20104;-63
2022/02/22 10:13:52;;;;;;;18.63;13.48;;;333.70;2329.60;;;;;;5053357;28;20056;-66
2022/02/22 10:16:18;;;;;;;15.40;9.95;;;333.60;2329.60;;;;;;5053264;28;20502;-63
2022/02/22 10:18:55;;;;;;;14.13;10.43;;;;;;;;;;5052851;28;20032;-63
2022/02/22 10:21:21;;;;;;;17.02;11.80;;;;;;;;;;5053221;28;20028;-65
2022/02/22 10:23:48;;;;;;;10.82;7.75;;;;;;;;;;5052969;28;20030;-64
2022/02/22 10:26:20;;;;;;;17.23;11.48;;;;;;;;;;5052948;28;20029;-68
2022/02/22 10:28:46;;;;;;;21.20;16.77;;;;;;;;;;5052971;28;20036;-68
2022/02/22 10:31:13;;;;;;;16.13;11.05;;;;;;;;;;5052903;28;20021;-68
2022/02/22 10:33:46;;;;;;;15.23;9.45;;;308.00;2304.00;;;;;;5052993;28;20037;-65
2022/02/22 10:36:19;;;;;;;13.95;8.80;;;307.80;2304.00;;;;;;5052755;28;20024;-67
2022/02/22 10:38:46;;;;;;;16.73;10.95;;;307.70;2304.00;;;;;;5052602;28;20041;-68
2022/02/22 10:41:18;;;;;;;16.35;11.18;;;;;;;;;;5052716;28;20025;-68
2022/02/22 10:43:51;;;;;;;19.80;13.68;;;;;;;;;;5052807;28;20025;-68
2022/02/22 10:46:23;;;;;;;20.70;15.38;;;;;;;;;;5052845;28;20021;-67
2022/02/22 10:48:49;;;;;;;19.05;13.10;;;;;;;;;;5052607;28;20036;-66
2022/02/22 10:51:16;;;;;;;20.77;14.70;;;;;;;;;;5052275;28;20022;-64
2022/02/22 10:53:44;;;;;;;20.30;12.93;;;;;;;;;;5052706;28;20072;-66
2022/02/22 10:56:11;;;;;;;21.85;13.27;;;;;;;;;;5053043;28;20170;-68
2022/02/22 10:58:43;;;;;;;22.52;15.43;;;;;;;;;;5052643;28;20025;-63
2022/02/22 11:01:10;;;;;;;23.70;15.88;;;;;;;;;;5052575;28;20032;-67
2022/02/22 11:03:46;;;;;;;23.40;16.85;;;;;;;;;;5054723;28;20033;-65
2022/02/22 11:06:13;;;;;;;44.03;30.33;;;;;;;;;;5056543;28;20029;-67
2022/02/22 11:08:46;;;;;;;37.63;25.20;;;;;;;;;;5056551;28;20021;-63
2022/02/22 11:11:33;;;;;;;41.83;29.60;;;;;;;;;;5056502;28;20029;-68
2022/02/22 11:14:05;;;;;;;42.22;31.73;;;;;;;;;;5056912;28;20023;-69
2022/02/22 11:16:39;;;;;;;33.28;27.10;;;;;;;;;;5056219;28;20024;-69
2022/02/22 11:19:13;;;;;;;61.55;42.47;;;;;;;;;;5056252;28;20039;-69
2022/02/22 11:21:39;;;;;;;31.88;26.10;;;;;;;;;;5056028;28;20400;-68
2022/02/22 11:24:08;;;;;;;16.60;13.52;;;;;;;;;;5056349;28;20317;-68
2022/02/22 11:26:45;;;;;;;22.42;20.15;;;;;;;;;;5056323;28;20017;-68
2022/02/22 11:29:12;;;;;;;22.50;16.67;;;;;;;;;;5056205;28;20043;-66
2022/02/22 11:31:38;;;;;;;17.90;12.68;;;;;;;;;;5056335;28;20041;-68
2022/02/22 11:34:04;;;;;;;16.88;12.95;;;;;;;;;;5056120;28;20029;-69
2022/02/22 11:36:32;;;;;;;21.42;14.30;;;;;;;;;;5056217;28;20052;-67
2022/02/22 11:38:59;;;;;;;16.42;13.60;;;;;;;;;;5055882;28;20518;-65
2022/02/22 11:41:27;;;;;;;15.95;12.07;;;;;;;;;;5055998;28;20080;-69
2022/02/22 11:44:00;;;;;;;12.60;9.88;;;;;;;;;;5055829;28;20025;-69
2022/02/22 11:47:01;;;;;;;14.05;11.27;;;;;;;;;;5055907;28;20060;-63
2022/02/22 11:49:32;;;;;;;24.55;21.73;;;;;;;;;;5053597;28;20029;-68
2022/02/22 11:52:16;;;;;;;16.90;13.55;;;;;;;;;;5053784;28;20063;-69
2022/02/22 11:54:42;;;;;;;18.98;12.18;;;;;;;;;;5053769;28;20139;-67
2022/02/22 11:57:11;;;;;;;14.80;10.85;;;;;;;;;;5053502;28;20037;-63
2022/02/22 11:59:51;;;;;;;14.48;10.73;;;;;;;;;;5053528;28;20079;-69
2022/02/22 12:02:26;;;;;;;12.65;9.55;;;;;;;;;;5053365;28;20036;-69
2022/02/22 12:04:53;;;;;;;22.52;15.00;;;;;;;;;;5053455;28;20036;-69
2022/02/22 12:07:30;;;;;;;26.48;18.52;;;;;;;;;;5053352;28;20024;-62
2022/02/22 12:09:57;;;;;;;23.88;15.95;;;;;;;;;;5053364;28;20033;-69
2022/02/22 12:12:24;;;;;;;18.17;12.05;;;;;;;;;;5053396;28;20466;-69
2022/02/22 12:14:51;;;;;;;10.45;7.53;;;;;;;;;;5052329;28;20025;-63
2022/02/22 12:17:17;;;;;;;19.67;13.68;;;;;;;;;;5053040;28;20515;-65
2022/02/22 12:19:47;;;;;;;15.82;12.00;;;;;;;;;;5052770;28;20037;-66
2022/02/22 12:22:15;;;;;;;24.10;16.00;;;;;;;;;;5052841;28;20496;-68
2022/02/22 12:24:41;;;;;;;15.57;10.35;;;;;;;;;;5055393;28;20117;-68
2022/02/22 12:27:12;;;;;;;18.83;11.52;;;;;;;;;;5055541;28;20021;-69
2022/02/22 12:29:38;;;;;;;16.90;9.20;;;;;;;;;;5055111;28;20056;-69
2022/02/22 12:32:05;;;;;;;24.13;14.40;;;;;;;;;;5054895;28;20078;-67
2022/02/22 12:34:31;;;;;;;16.33;11.65;;;;;;;;;;5054714;28;20488;-68
2022/02/22 12:36:59;;;;;;;14.93;9.98;;;;;;;;;;5054821;28;20056;-65
2022/02/22 12:39:26;;;;;;;23.25;12.95;;;;;;;;;;5054876;28;20493;-68
2022/02/22 12:41:56;;;;;;;23.10;11.73;;;;;;;;;;5054798;28;20017;-69
2022/02/22 12:44:23;;;;;;;15.52;10.57;;;;;;;;;;5054936;28;20025;-69
2022/02/22 12:46:50;;;;;;;23.25;13.00;;;;;;;;;;5054633;28;20499;-69
2022/02/22 12:49:18;;;;;;;17.10;10.60;;;;;;;;;;5054818;28;20426;-67
2022/02/22 12:51:49;;;;;;;20.73;13.23;;;;;;;;;;5054966;28;20021;-69
2022/02/22 12:54:19;;;;;;;19.55;12.98;;;;;;;;;;5054498;28;20057;-69
2022/02/22 12:56:52;;;;;;;26.60;15.15;;;;;;;;;;5054420;28;20036;-68
2022/02/22 12:59:26;;;;;;;41.22;20.48;;;;;;;;;;5054234;28;20116;-67
2022/02/22 13:01:53;;;;;;;38.13;18.48;;;;;;;;;;5054085;28;20029;-68
2022/02/22 13:04:38;;;;;;;30.60;15.35;;;;;;;;;;5054398;28;20430;-68
2022/02/22 13:07:09;;;;;;;27.23;15.57;;;;;;;;;;5054291;28;20060;-69
2022/02/22 13:09:35;;;;;;;39.53;16.52;;;;;;;;;;5054261;28;20024;-69
2022/02/22 13:12:01;;;;;;;37.28;22.45;;;;;;;;;;5054148;28;20030;-67
2022/02/22 13:14:40;;;;;;;33.45;16.85;;;;;;;;;;5054216;28;20033;-69
2022/02/22 13:17:07;;;;;;;18.27;12.07;;;;;;;;;;5054028;28;20103;-67
2022/02/22 13:19:37;;;;;;;24.00;14.18;;;;;;;;;;5054043;28;20037;-68
2022/02/22 13:22:05;;;;;;;19.30;11.93;;;;;;;;;;5054017;28;20134;-67
2022/02/22 13:24:31;;;;;;;28.45;14.45;;;;;;;;;;5053900;28;20391;-68
2022/02/22 13:26:59;;;;;;;26.75;13.45;;;307.60;2304.00;;;;;;5053685;28;20021;-67
2022/02/22 13:29:26;;;;;;;32.63;11.35;;;307.70;2304.00;;;;;;5053713;28;20063;-66
2022/02/22 13:32:12;;;;;;;38.05;20.13;;;307.60;2304.00;;;;;;5053799;28;20039;-68
2022/02/22 13:34:53;;;;;;;18.40;9.38;;;307.80;2304.00;;;;;;5035704;28;20053;-67
2022/02/22 13:37:31;;;;;;;25.25;12.02;;;307.60;2304.00;;;;;;5053484;28;20029;-63
2022/02/22 13:40:30;;;;;;;39.38;20.90;;;307.50;2304.00;;;;;;5053925;28;20040;-67
2022/02/22 13:43:07;;;;;;;40.22;23.45;;;307.40;2304.00;;;;;;5051571;28;20048;-66